Time;durP1;ratioP1;P1;durP2;ratioP2;P2;SDS_P1;SDS_P2;PMS_P1;PMS_P2;Temp;Humidity;BMP_temperature;BMP_pressure;BME280_temperature;BME280_humidity;BME280_pressure;Samples;Min_cycle;Max_cycle;Signal;HPM_P1;HPM_P2
2022/06/24 00:01:59;;;;;;;28.43;11.60;;;22.60;83.10;;;;;;5016484;28;20533;-76
2022/06/24 00:04:26;;;;;;;24.80;12.87;;;22.60;79.10;;;;;;5019007;28;20176;-76
2022/06/24 00:06:53;;;;;;;22.77;12.43;;;22.60;81.90;;;;;;4988113;28;20431;-76
2022/06/24 00:09:19;;;;;;;28.23;13.80;;;22.50;80.20;;;;;;4990651;28;20801;-77
2022/06/24 00:11:44;;;;;;;22.40;13.20;;;22.50;79.40;;;;;;5016642;28;20828;-76
2022/06/24 00:14:12;;;;;;;23.20;14.20;;;22.40;83.60;;;;;;5015644;28;20521;-76
2022/06/24 00:16:54;;;;;;;25.90;15.13;;;22.30;87.50;;;;;;5016136;28;20195;-75
2022/06/24 00:19:21;;;;;;;26.30;14.00;;;22.10;90.40;;;;;;5015495;28;20428;-75
2022/06/24 00:21:57;;;;;;;26.60;12.43;;;22.10;93.50;;;;;;5015414;28;20470;-76
2022/06/24 00:24:23;;;;;;;23.50;15.00;;;22.10;95.50;;;;;;5015902;28;20431;-76
2022/06/24 00:26:48;;;;;;;29.33;14.20;;;22.20;93.70;;;;;;4998659;28;20432;-76
2022/06/24 00:29:17;;;;;;;21.03;13.40;;;22.20;94.60;;;;;;5015470;28;20211;-77
2022/06/24 00:32:06;;;;;;;27.30;16.93;;;22.20;94.20;;;;;;5015933;28;20239;-75
2022/06/24 00:34:33;;;;;;;20.20;12.03;;;22.20;91.50;;;;;;5015746;28;20415;-76
2022/06/24 00:37:22;;;;;;;24.27;12.70;;;22.20;92.20;;;;;;5016038;28;20424;-77
2022/06/24 00:39:48;;;;;;;21.07;13.40;;;22.20;95.40;;;;;;5011723;28;20481;-76
2022/06/24 00:42:15;;;;;;;21.03;12.97;;;22.20;99.70;;;;;;5015607;28;20475;-76
2022/06/24 00:45:03;;;;;;;29.37;14.20;;;22.10;99.90;;;;;;4999687;28;20192;-77
2022/06/24 00:47:31;;;;;;;40.10;17.23;;;22.10;99.90;;;;;;5027750;28;20421;-76
2022/06/24 00:50:00;;;;;;;24.83;14.20;;;22.10;99.90;;;;;;5015882;28;20419;-77
2022/06/24 00:52:26;;;;;;;28.83;15.03;;;22.00;99.90;;;;;;5015600;28;20446;-75
2022/06/24 00:54:51;;;;;;;30.80;15.27;;;21.90;99.90;;;;;;5016083;28;20432;-76
2022/06/24 00:57:17;;;;;;;31.40;18.77;;;21.90;99.90;;;;;;5015359;28;20196;-76
2022/06/24 00:59:45;;;;;;;26.67;13.23;;;21.80;99.90;;;;;;5016195;28;20256;-75
2022/06/24 01:02:14;;;;;;;28.13;15.30;;;21.60;99.90;;;;;;5015239;28;20966;-75
2022/06/24 01:04:40;;;;;;;28.73;12.90;;;21.50;99.90;;;;;;5015453;28;20429;-76
2022/06/24 01:07:05;;;;;;;19.97;11.83;;;21.40;99.90;;;;;;5014612;28;20587;-75
2022/06/24 01:09:31;;;;;;;27.73;13.00;;;21.40;99.90;;;;;;4997750;28;20187;-77
2022/06/24 01:11:56;;;;;;;28.03;11.63;;;21.30;99.90;;;;;;5015222;28;20265;-76
2022/06/24 01:14:22;;;;;;;18.40;10.07;;;21.30;99.90;;;;;;5015475;28;20190;-76
2022/06/24 01:16:47;;;;;;;18.70;9.27;;;21.20;99.90;;;;;;5015859;28;20192;-76
2022/06/24 01:19:14;;;;;;;19.43;8.80;;;21.20;99.90;;;;;;5015446;28;20471;-76
2022/06/24 01:21:41;;;;;;;17.87;9.00;;;21.10;99.90;;;;;;5015159;28;20199;-76
2022/06/24 01:24:09;;;;;;;15.83;9.03;;;21.10;99.90;;;;;;5015740;28;20488;-76
2022/06/24 01:26:36;;;;;;;15.60;8.67;;;21.00;99.90;;;;;;5017553;28;20944;-76
2022/06/24 01:29:02;;;;;;;18.37;10.37;;;21.00;99.90;;;;;;5015564;28;20424;-76
2022/06/24 01:31:28;;;;;;;21.93;12.10;;;21.00;99.90;;;;;;5014030;28;20430;-75
2022/06/24 01:33:54;;;;;;;21.33;10.10;;;21.00;99.90;;;;;;5014311;28;20417;-76
2022/06/24 01:36:19;;;;;;;14.40;9.00;;;20.90;99.90;;;;;;5014406;28;20628;-77
2022/06/24 01:38:45;;;;;;;11.37;7.80;;;21.00;99.90;;;;;;5014235;28;20710;-76
2022/06/24 01:41:10;;;;;;;21.93;8.80;;;20.90;99.90;;;;;;5014379;28;20246;-76
2022/06/24 01:43:36;;;;;;;14.03;7.50;;;20.90;99.90;;;;;;5015031;28;20244;-75
2022/06/24 01:46:02;;;;;;;11.93;7.47;;;20.90;99.90;;;;;;5015321;28;20661;-75
2022/06/24 01:48:27;;;;;;;20.13;10.33;;;20.80;99.90;;;;;;5015006;28;20657;-77
2022/06/24 01:50:53;;;;;;;19.70;9.37;;;20.80;99.90;;;;;;5015024;28;20193;-75
2022/06/24 01:53:19;;;;;;;23.13;10.43;;;20.80;99.90;;;;;;5015418;28;20279;-75
2022/06/24 01:55:44;;;;;;;16.27;8.47;;;20.80;99.90;;;;;;5016561;28;20841;-76
2022/06/24 01:58:10;;;;;;;14.03;7.57;;;20.90;99.90;;;;;;5016199;28;20182;-76
2022/06/24 02:00:36;;;;;;;16.43;8.83;;;20.90;99.90;;;;;;5014501;28;20431;-76
2022/06/24 02:03:05;;;;;;;21.00;10.47;;;20.80;99.90;;;;;;5013463;28;20209;-76
2022/06/24 02:05:31;;;;;;;16.30;11.00;;;20.70;99.90;;;;;;5013795;28;20306;-75
2022/06/24 02:07:57;;;;;;;18.70;9.13;;;20.70;99.90;;;;;;5013381;28;20426;-76
2022/06/24 02:13:26;;;;;;;14.03;7.60;;;20.70;99.90;;;;;;5009919;28;20561;-76
2022/06/24 02:15:56;;;;;;;18.00;7.10;;;20.70;99.90;;;;;;5007758;28;20475;-77
2022/06/24 02:18:23;;;;;;;12.30;6.40;;;20.80;99.90;;;;;;5013787;28;20424;-76
2022/06/24 02:20:49;;;;;;;9.13;6.50;;;20.80;99.90;;;;;;5014478;28;20475;-75
2022/06/24 02:23:16;;;;;;;11.00;6.23;;;20.80;99.90;;;;;;5015055;28;20461;-76
2022/06/24 02:25:42;;;;;;;21.30;6.37;;;20.80;99.90;;;;;;5014417;28;20488;-76
2022/06/24 02:28:07;;;;;;;11.70;6.30;;;20.80;99.90;;;;;;5013995;28;20454;-76
2022/06/24 02:30:33;;;;;;;10.93;6.13;;;20.80;99.90;;;;;;5013870;28;20184;-76
2022/06/24 02:32:59;;;;;;;12.83;5.90;;;20.90;99.90;;;;;;5015801;28;20197;-76
2022/06/24 02:35:25;;;;;;;12.10;6.73;;;20.80;99.90;;;;;;5017240;28;20432;-76
2022/06/24 02:37:50;;;;;;;9.70;5.53;;;20.80;99.90;;;;;;5017550;28;20194;-76
2022/06/24 02:43:00;;;;;;;8.40;5.47;;;20.80;99.90;;;;;;5015757;28;20220;-77
2022/06/24 02:45:26;;;;;;;10.27;5.87;;;20.90;99.90;;;;;;5002337;28;20429;-76
2022/06/24 02:47:52;;;;;;;12.27;6.37;;;20.80;99.60;;;;;;5020165;28;20188;-77
2022/06/24 02:50:17;;;;;;;10.97;6.63;;;20.80;99.90;;;;;;5018120;28;20245;-77
2022/06/24 02:52:43;;;;;;;6.80;6.10;;;20.80;99.90;;;;;;5017551;28;20208;-76
2022/06/24 02:55:09;;;;;;;14.53;6.50;;;20.90;99.90;;;;;;5018292;28;20186;-76
2022/06/24 02:57:34;;;;;;;11.10;5.90;;;20.80;99.90;;;;;;5017795;28;20560;-76
2022/06/24 03:00:00;;;;;;;16.63;8.50;;;20.80;99.90;;;;;;5018667;28;20423;-77
2022/06/24 03:02:26;;;;;;;10.40;8.00;;;20.70;99.90;;;;;;5017649;28;20212;-76
2022/06/24 03:04:51;;;;;;;19.97;8.30;;;20.60;99.90;;;;;;5014638;28;20185;-76
2022/06/24 03:07:17;;;;;;;11.90;8.17;;;20.60;99.90;;;;;;5002458;28;20192;-77
2022/06/24 03:09:43;;;;;;;17.00;10.80;;;20.80;99.90;;;;;;5003230;28;20188;-76
2022/06/24 03:12:09;;;;;;;26.83;15.87;;;20.70;99.90;;;;;;5016953;28;20200;-74
2022/06/24 03:14:34;;;;;;;21.83;14.33;;;20.70;99.90;;;;;;5016848;28;20433;-76
2022/06/24 03:17:00;;;;;;;19.47;11.10;;;20.70;99.90;;;;;;5016999;28;20180;-75
2022/06/24 03:19:25;;;;;;;19.70;13.73;;;20.70;99.90;;;;;;5017025;28;20237;-77
2022/06/24 03:21:51;;;;;;;16.20;13.40;;;20.70;99.90;;;;;;5016179;28;20634;-75
2022/06/24 03:24:16;;;;;;;22.10;17.30;;;20.70;99.90;;;;;;5017130;28;20674;-75
2022/06/24 03:26:42;;;;;;;24.07;16.73;;;20.70;99.90;;;;;;5016383;28;20264;-76
2022/06/24 03:29:07;;;;;;;22.30;12.73;;;20.70;99.90;;;;;;5016812;28;20646;-75
2022/06/24 03:31:33;;;;;;;17.60;13.07;;;20.80;99.90;;;;;;5015099;28;20645;-73
2022/06/24 03:33:59;;;;;;;23.87;14.00;;;20.90;99.90;;;;;;5015368;28;20167;-74
2022/06/24 03:36:25;;;;;;;18.30;12.77;;;20.90;99.90;;;;;;5015562;28;20479;-73
2022/06/24 03:38:51;;;;;;;18.30;14.30;;;20.80;99.90;;;;;;4997740;28;20252;-73
2022/06/24 03:41:16;;;;;;;18.80;13.57;;;20.80;99.90;;;;;;5015020;28;20175;-72
2022/06/24 03:43:42;;;;;;;19.00;12.90;;;20.80;99.90;;;;;;5015083;28;20502;-73
2022/06/24 03:46:08;;;;;;;18.00;11.53;;;20.70;99.90;;;;;;5015401;28;20200;-73
2022/06/24 03:48:33;;;;;;;16.83;11.03;;;20.70;99.90;;;;;;5014310;28;20183;-73
2022/06/24 03:50:59;;;;;;;21.43;10.73;;;20.80;99.90;;;;;;5014578;28;20715;-73
2022/06/24 03:53:24;;;;;;;17.00;12.47;;;20.80;99.90;;;;;;5015052;28;20219;-72
2022/06/24 03:55:51;;;;;;;16.27;11.53;;;20.70;99.90;;;;;;5013229;28;20229;-72
2022/06/24 03:58:17;;;;;;;16.33;11.43;;;20.70;99.90;;;;;;5014629;28;20186;-73
2022/06/24 04:00:43;;;;;;;17.50;12.10;;;20.70;99.90;;;;;;5014165;28;20428;-73
2022/06/24 04:03:09;;;;;;;16.00;12.50;;;20.70;99.90;;;;;;5014169;28;20982;-72
2022/06/24 04:05:35;;;;;;;20.13;13.83;;;20.70;99.90;;;;;;4995827;28;20182;-73
2022/06/24 04:08:00;;;;;;;23.07;14.80;;;20.70;99.90;;;;;;5007502;28;20525;-73
2022/06/24 04:10:26;;;;;;;20.73;14.20;;;20.70;99.90;;;;;;5013298;28;20844;-73
2022/06/24 04:12:52;;;;;;;18.90;15.50;;;20.80;99.90;;;;;;5012045;28;20237;-73
2022/06/24 04:15:19;;;;;;;15.10;12.90;;;20.80;99.90;;;;;;5013711;28;20425;-73
2022/06/24 04:17:47;;;;;;;21.33;13.87;;;20.80;99.90;;;;;;5013475;28;20433;-72
2022/06/24 04:20:14;;;;;;;21.03;12.50;;;20.80;99.90;;;;;;5013938;28;20948;-73
2022/06/24 04:22:41;;;;;;;20.03;11.67;;;20.90;99.90;;;;;;5012824;28;20522;-73
2022/06/24 04:25:08;;;;;;;16.13;13.07;;;20.90;99.90;;;;;;5013704;28;20412;-72
2022/06/24 04:27:33;;;;;;;16.93;13.07;;;20.90;99.90;;;;;;5013069;28;20504;-73
2022/06/24 04:30:04;;;;;;;26.80;15.27;;;20.90;99.90;;;;;;4995873;28;20552;-73
2022/06/24 04:32:29;;;;;;;17.40;12.17;;;20.90;99.90;;;;;;5013070;28;20238;-72
2022/06/24 04:34:55;;;;;;;16.47;13.30;;;20.80;99.90;;;;;;5013451;28;20909;-73
2022/06/24 04:37:21;;;;;;;15.03;12.30;;;20.90;99.90;;;;;;5013690;28;20191;-72
2022/06/24 04:39:46;;;;;;;21.47;13.43;;;20.90;99.90;;;;;;5012630;28;20189;-73
2022/06/24 04:42:12;;;;;;;30.87;21.30;;;20.90;99.90;;;;;;5012310;28;20689;-72
2022/06/24 04:44:38;;;;;;;29.27;19.37;;;20.90;99.90;;;;;;5012861;28;20188;-73
2022/06/24 04:47:04;;;;;;;26.13;17.47;;;21.00;99.90;;;;;;5012987;28;20184;-73
2022/06/24 04:49:29;;;;;;;21.40;14.20;;;21.00;99.90;;;;;;5013003;28;20473;-72
2022/06/24 04:51:55;;;;;;;23.73;16.83;;;21.00;99.90;;;;;;5013078;28;20446;-73
2022/06/24 04:54:21;;;;;;;22.40;15.83;;;20.90;99.90;;;;;;5013534;28;20181;-73
2022/06/24 04:56:47;;;;;;;23.77;16.57;;;20.90;99.90;;;;;;5013466;28;20179;-72
2022/06/24 04:59:12;;;;;;;20.73;16.60;;;20.80;99.90;;;;;;5012975;28;20933;-73
2022/06/24 05:01:38;;;;;;;26.83;16.07;;;20.80;99.90;;;;;;5011910;28;20258;-73
2022/06/24 05:04:04;;;;;;;18.27;14.33;;;20.80;99.90;;;;;;5012855;28;20206;-73
2022/06/24 05:06:30;;;;;;;19.00;14.00;;;20.80;99.90;;;;;;5012435;28;20178;-73
2022/06/24 05:08:56;;;;;;;19.13;15.43;;;20.80;99.90;;;;;;5011734;28;20416;-73
2022/06/24 05:11:22;;;;;;;28.60;15.30;;;20.80;99.90;;;;;;5012378;28;20174;-73
2022/06/24 05:13:48;;;;;;;33.70;21.70;;;20.80;99.90;;;;;;5011934;28;20467;-73
2022/06/24 05:16:14;;;;;;;21.53;15.90;;;20.80;99.90;;;;;;5012275;28;20475;-74
2022/06/24 05:18:39;;;;;;;29.60;17.13;;;20.80;99.90;;;;;;5012151;28;20268;-73
2022/06/24 05:21:05;;;;;;;25.73;17.90;;;20.80;99.90;;;;;;5013697;28;20250;-72
2022/06/24 05:23:30;;;;;;;24.70;16.67;;;20.80;99.90;;;;;;5012615;28;20211;-73
2022/06/24 05:25:56;;;;;;;23.93;18.07;;;20.80;99.90;;;;;;5012870;28;20263;-72
2022/06/24 05:28:22;;;;;;;32.10;18.30;;;20.80;99.90;;;;;;5013966;28;20179;-74
2022/06/24 05:30:53;;;;;;;29.23;18.70;;;20.90;99.90;;;;;;5013632;28;20182;-72
2022/06/24 05:33:19;;;;;;;26.43;19.70;;;20.80;99.90;;;;;;5013053;28;20194;-72
2022/06/24 05:35:44;;;;;;;17.87;10.07;;;20.90;99.90;;;;;;5012033;28;20420;-72
2022/06/24 05:38:10;;;;;;;13.33;8.47;;;20.80;97.20;;;;;;5012413;28;20184;-73
2022/06/24 05:40:36;;;;;;;10.23;6.70;;;20.70;89.60;;;;;;5012180;28;20184;-73
2022/06/24 05:43:01;;;;;;;20.10;7.10;;;20.60;88.10;;;;;;5033889;22;20246;-75
2022/06/24 05:45:27;;;;;;;16.53;10.97;;;20.60;82.30;;;;;;5032300;28;20227;-74
2022/06/24 05:47:55;;;;;;;14.50;7.43;;;20.50;82.80;;;;;;5031043;28;20191;-74
2022/06/24 05:50:21;;;;;;;25.43;15.13;;;20.60;80.40;;;;;;5031975;28;20249;-74
2022/06/24 05:55:31;;;;;;;11.20;6.73;;;20.60;85.40;;;;;;5031989;28;20230;-74
2022/06/24 05:57:56;;;;;;;17.40;12.33;;;20.60;88.80;;;;;;5032179;28;20435;-74
2022/06/24 06:00:22;;;;;;;19.40;13.03;;;20.60;90.60;;;;;;5031983;28;20176;-74
2022/06/24 06:02:48;;;;;;;84.63;59.83;;;20.70;84.60;;;;;;5031721;28;20208;-74
2022/06/24 06:05:13;;;;;;;20.17;14.50;;;20.60;88.50;;;;;;5031769;28;20424;-73
2022/06/24 06:07:39;;;;;;;16.70;7.30;;;20.60;95.30;;;;;;5031177;28;20182;-73
2022/06/24 06:10:05;;;;;;;22.73;12.47;;;20.60;95.00;;;;;;5037871;28;20183;-74
2022/06/24 06:12:34;;;;;;;34.30;20.10;;;20.70;99.80;;;;;;5031263;28;20680;-73
2022/06/24 06:14:59;;;;;;;35.90;20.00;;;20.70;99.90;;;;;;5030496;28;20920;-74
2022/06/24 06:17:25;;;;;;;20.63;13.20;;;20.80;99.90;;;;;;5032501;28;20427;-73
2022/06/24 06:19:50;;;;;;;18.60;13.07;;;20.90;99.90;;;;;;5035625;28;20190;-73
2022/06/24 06:22:16;;;;;;;18.80;14.20;;;21.00;99.90;;;;;;5035867;28;20648;-74
2022/06/24 06:24:41;;;;;;;20.17;15.00;;;21.10;99.90;;;;;;5035700;28;20276;-73
2022/06/24 06:27:08;;;;;;;40.70;22.30;;;21.10;99.90;;;;;;5035745;28;20190;-74
2022/06/24 06:29:33;;;;;;;23.43;13.60;;;21.10;99.90;;;;;;5037013;28;20625;-74
2022/06/24 06:31:59;;;;;;;25.33;12.87;;;21.10;99.90;;;;;;5036679;28;20515;-74
2022/06/24 06:34:24;;;;;;;20.77;12.70;;;21.20;99.90;;;;;;5037465;28;20185;-75
2022/06/24 06:36:50;;;;;;;24.03;12.73;;;21.20;99.90;;;;;;5036832;28;20194;-75
2022/06/24 06:39:15;;;;;;;18.80;13.53;;;21.30;98.40;;;;;;5037847;28;20188;-75
2022/06/24 06:41:42;;;;;;;21.60;12.57;;;21.30;96.20;;;;;;5037172;28;20210;-75
2022/06/24 06:44:07;;;;;;;18.67;13.70;;;21.40;94.40;;;;;;5036426;28;20694;-75
2022/06/24 06:46:33;;;;;;;19.23;13.90;;;21.60;91.80;;;;;;5035072;28;20486;-72
2022/06/24 06:48:58;;;;;;;37.07;14.70;;;21.70;89.40;;;;;;5033350;28;20640;-72
2022/06/24 06:51:24;;;;;;;18.40;12.80;;;21.70;91.80;;;;;;5035991;28;20204;-74
2022/06/24 06:53:49;;;;;;;22.97;13.90;;;21.70;88.00;;;;;;5035397;28;20220;-74
2022/06/24 06:56:15;;;;;;;17.93;12.67;;;21.70;84.90;;;;;;5035261;28;20262;-72
2022/06/24 06:58:41;;;;;;;16.13;10.53;;;21.60;84.70;;;;;;5035130;28;20184;-73
2022/06/24 07:01:07;;;;;;;13.93;6.80;;;21.50;85.80;;;;;;5034967;28;20179;-72
2022/06/24 07:03:32;;;;;;;5.10;3.90;;;21.20;80.80;;;;;;5034519;28;20470;-76
2022/06/24 07:05:58;;;;;;;8.53;4.37;;;20.60;82.50;;;;;;5035250;28;20176;-74
2022/06/24 07:08:23;;;;;;;7.93;4.50;;;20.30;89.00;;;;;;5036265;28;20176;-74
2022/06/24 07:10:49;;;;;;;3.73;3.40;;;20.10;90.70;;;;;;5016633;28;20279;-74
2022/06/24 07:13:15;;;;;;;7.30;3.13;;;20.00;91.70;;;;;;5034542;28;20195;-74
2022/06/24 07:15:41;;;;;;;5.27;2.83;;;19.70;89.70;;;;;;5037393;28;20652;-74
2022/06/24 07:18:06;;;;;;;3.70;2.00;;;19.10;99.90;;;;;;5035779;28;20520;-73
2022/06/24 07:20:33;;;;;;;5.03;1.87;;;18.80;99.90;;;;;;5034462;28;20187;-74
2022/06/24 07:22:59;;;;;;;7.77;2.80;;;18.60;99.90;;;;;;5033270;28;20662;-74
2022/06/24 07:25:24;;;;;;;10.73;3.70;;;18.60;99.90;;;;;;5034109;28;20465;-73
2022/06/24 07:27:50;;;;;;;7.20;3.50;;;18.60;99.90;;;;;;5034023;28;20631;-74
2022/06/24 07:30:15;;;;;;;14.30;7.00;;;18.60;99.90;;;;;;5032903;28;20290;-74
2022/06/24 07:32:41;;;;;;;10.63;5.30;;;18.70;99.90;;;;;;5033495;28;20691;-73
2022/06/24 07:35:07;;;;;;;8.73;4.13;;;18.70;99.90;;;;;;5033757;28;20188;-72
2022/06/24 07:37:33;;;;;;;5.43;3.60;;;18.70;99.90;;;;;;5034022;28;20187;-72
2022/06/24 07:39:58;;;;;;;13.30;4.57;;;18.60;99.90;;;;;;5033427;28;20409;-73
2022/06/24 07:42:24;;;;;;;8.70;3.30;;;18.70;99.90;;;;;;5015782;28;20211;-73
2022/06/24 07:44:49;;;;;;;10.50;3.10;;;18.70;99.90;;;;;;5033578;28;20666;-74
2022/06/24 07:47:15;;;;;;;10.90;4.00;;;18.60;99.90;;;;;;5033700;28;20183;-73
2022/06/24 07:49:40;;;;;;;5.20;3.67;;;18.70;99.90;;;;;;5033565;28;20188;-73
2022/06/24 07:52:09;;;;;;;10.17;4.07;;;18.70;99.90;;;;;;5033813;28;20183;-74
2022/06/24 07:54:35;;;;;;;7.43;3.50;;;18.60;99.90;;;;;;5037272;28;20182;-74
2022/06/24 07:57:01;;;;;;;8.67;4.57;;;18.80;99.90;;;;;;5015470;28;20436;-74
2022/06/24 07:59:31;;;;;;;8.83;4.60;;;18.80;99.90;;;;;;5035514;28;20442;-73
2022/06/24 08:01:58;;;;;;;14.60;4.63;;;18.70;99.90;;;;;;5032853;28;20214;-74
2022/06/24 08:04:25;;;;;;;11.13;5.50;;;18.70;99.90;;;;;;5033525;28;20399;-73
2022/06/24 08:06:52;;;;;;;10.97;5.33;;;18.70;99.90;;;;;;5033023;28;20427;-73
2022/06/24 08:09:19;;;;;;;7.83;4.40;;;18.70;99.90;;;;;;5033301;28;20457;-74
2022/06/24 08:11:45;;;;;;;6.60;4.17;;;18.80;99.90;;;;;;5032794;28;20945;-74
2022/06/24 08:14:13;;;;;;;4.10;3.57;;;19.00;99.90;;;;;;5036104;28;20486;-74
2022/06/24 08:16:38;;;;;;;5.47;4.37;;;19.00;99.90;;;;;;5037686;28;20502;-74
2022/06/24 08:19:04;;;;;;;9.60;4.63;;;19.10;99.90;;;;;;5036146;28;20533;-77
2022/06/24 08:21:29;;;;;;;13.60;4.90;;;19.10;99.90;;;;;;5035797;28;20277;-74
2022/06/24 08:23:55;;;;;;;9.03;4.80;;;19.10;99.90;;;;;;5037666;28;20221;-75
2022/06/24 08:26:21;;;;;;;12.33;5.50;;;19.20;99.90;;;;;;5037940;28;20317;-74
2022/06/24 08:28:47;;;;;;;8.50;4.93;;;19.20;99.90;;;;;;5035371;28;20196;-75
2022/06/24 08:31:13;;;;;;;13.93;6.10;;;19.40;99.90;;;;;;5033051;28;20175;-76
2022/06/24 08:33:39;;;;;;;11.23;6.77;;;19.50;99.90;;;;;;5032371;28;20429;-76
2022/06/24 08:36:05;;;;;;;11.30;5.90;;;19.50;99.90;;;;;;5030654;28;20191;-76
2022/06/24 08:38:30;;;;;;;10.50;6.33;;;19.60;99.90;;;;;;5029397;28;20433;-76
2022/06/24 08:41:00;;;;;;;13.50;7.13;;;19.60;99.90;;;;;;5035398;28;20794;-76
2022/06/24 08:43:33;;;;;;;14.27;7.30;;;19.60;99.90;;;;;;5038575;28;20271;-77
2022/06/24 08:46:00;;;;;;;11.30;6.53;;;19.80;99.90;;;;;;5039345;28;20426;-77
2022/06/24 08:48:27;;;;;;;15.47;7.00;;;19.80;99.90;;;;;;5042415;28;20430;-77
2022/06/24 08:50:53;;;;;;;16.47;7.37;;;19.90;99.90;;;;;;5040296;28;20894;-79
2022/06/24 08:53:22;;;;;;;10.70;8.57;;;20.00;99.90;;;;;;5039561;28;20529;-77
2022/06/24 08:55:50;;;;;;;15.90;7.27;;;20.10;99.90;;;;;;5037803;28;20460;-76
2022/06/24 08:58:17;;;;;;;10.40;8.50;;;20.20;95.80;;;;;;5037306;28;20430;-78
2022/06/24 09:00:43;;;;;;;11.90;8.23;;;20.20;95.70;;;;;;5035301;28;20438;-77
2022/06/24 09:03:10;;;;;;;11.10;8.47;;;20.30;99.10;;;;;;5038942;28;20541;-76
2022/06/24 09:05:36;;;;;;;11.77;6.97;;;20.30;98.50;;;;;;5030595;28;20434;-78
2022/06/24 09:08:15;;;;;;;12.20;7.93;;;20.50;92.40;;;;;;5038746;28;20522;-77
2022/06/24 09:13:42;;;;;;;6.47;5.20;;;20.90;89.00;;;;;;5022942;28;20465;-76
2022/06/24 09:16:08;;;;;;;18.73;6.70;;;21.00;80.60;;;;;;5037940;28;20460;-78
2022/06/24 09:18:34;;;;;;;8.80;5.60;;;20.90;74.10;;;;;;5024859;28;20533;-77
2022/06/24 09:21:00;;;;;;;9.63;6.93;;;20.90;75.00;;;;;;5032761;28;20437;-76
2022/06/24 09:23:26;;;;;;;12.00;6.30;;;20.90;77.50;;;;;;5034612;28;20478;-77
2022/06/24 09:25:54;;;;;;;7.47;6.00;;;21.00;80.70;;;;;;5036669;28;20181;-77
2022/06/24 09:28:31;;;;;;;9.80;6.70;;;21.20;81.20;;;;;;5028793;28;20190;-78
2022/06/24 09:31:07;;;;;;;8.97;6.07;;;21.30;76.80;;;;;;5034612;28;20805;-78
2022/06/24 09:33:47;;;;;;;8.53;5.53;;;21.50;77.90;;;;;;5021700;28;20460;-77
2022/06/24 09:36:13;;;;;;;6.67;5.50;;;21.90;77.70;;;;;;5036811;28;20426;-78
2022/06/24 09:38:56;;;;;;;7.23;5.27;;;22.30;67.60;;;;;;5037988;28;20429;-77
2022/06/24 09:41:23;;;;;;;6.17;4.60;;;22.50;64.10;;;;;;5037226;28;20230;-77
2022/06/24 09:43:50;;;;;;;6.60;4.80;;;22.60;59.50;;;;;;5036575;28;20480;-78
2022/06/24 09:46:18;;;;;;;7.00;4.80;;;22.80;53.20;;;;;;5034837;28;20430;-77
2022/06/24 09:48:44;;;;;;;10.67;5.70;;;23.00;53.20;;;;;;5017069;28;20473;-76
2022/06/24 09:51:09;;;;;;;6.60;5.00;;;23.20;55.60;;;;;;5031919;28;20533;-76
2022/06/24 09:53:37;;;;;;;8.50;5.50;;;23.50;55.70;;;;;;5035216;28;20211;-77
2022/06/24 09:56:07;;;;;;;5.30;4.50;;;23.80;48.30;;;;;;5038152;28;20190;-77
2022/06/24 09:58:37;;;;;;;6.20;5.00;;;24.10;47.30;;;;;;5022276;28;20944;-77
2022/06/24 10:01:03;;;;;;;6.03;5.27;;;24.50;43.40;;;;;;5040934;28;21032;-77
2022/06/24 10:03:30;;;;;;;5.83;5.10;;;24.70;40.90;;;;;;5039419;28;20481;-78
2022/06/24 10:06:05;;;;;;;6.37;4.60;;;24.90;39.60;;;;;;5039053;28;20809;-78
2022/06/24 10:08:33;;;;;;;8.80;5.57;;;25.10;38.70;;;;;;5052623;28;20447;-77
2022/06/24 10:11:00;;;;;;;10.30;5.70;;;25.50;37.20;;;;;;5044526;28;20516;-77
2022/06/24 10:13:31;;;;;;;9.10;6.50;;;25.00;39.40;;;;;;5045020;28;21030;-77
2022/06/24 10:15:59;;;;;;;7.23;6.37;;;24.90;39.50;;;;;;5043050;28;20440;-77
2022/06/24 10:18:47;;;;;;;8.47;5.80;;;24.80;39.70;;;;;;5043347;28;20440;-77
2022/06/24 10:21:16;;;;;;;8.13;5.90;;;24.80;38.10;;;;;;5039788;28;20993;-77
2022/06/24 10:23:43;;;;;;;17.90;7.00;;;24.80;36.40;;;;;;5041954;28;20559;-76
2022/06/24 10:26:16;;;;;;;11.17;6.40;;;25.00;37.40;;;;;;5023320;28;20460;-75
2022/06/24 10:29:13;;;;;;;9.33;5.87;;;25.40;38.20;;;;;;5047823;28;20791;-77
2022/06/24 10:31:42;;;;;;;8.60;6.03;;;25.70;33.50;;;;;;5033402;28;20487;-77
2022/06/24 10:34:11;;;;;;;8.63;6.23;;;25.60;33.40;;;;;;5039714;28;20544;-75
2022/06/24 10:36:37;;;;;;;6.73;5.10;;;25.40;32.80;;;;;;5036501;28;20467;-73
2022/06/24 10:39:11;;;;;;;6.17;5.60;;;25.40;33.70;;;;;;5031583;28;20427;-73
2022/06/24 10:41:38;;;;;;;6.50;5.90;;;25.70;34.10;;;;;;5041342;28;20436;-76
2022/06/24 10:44:26;;;;;;;6.80;6.10;;;25.60;32.80;;;;;;5032236;28;21004;-76
2022/06/24 10:47:04;;;;;;;9.80;6.40;;;25.50;34.10;;;;;;5028801;28;20856;-73
2022/06/24 10:49:52;;;;;;;8.10;6.27;;;25.60;33.90;;;;;;5011206;28;20809;-74
2022/06/24 10:52:51;;;;;;;7.60;6.80;;;25.50;35.50;;;;;;5031381;28;20900;-74
2022/06/24 10:55:17;;;;;;;6.43;5.93;;;25.30;35.80;;;;;;5013011;28;20857;-74
2022/06/24 10:57:43;;;;;;;7.87;5.90;;;25.20;34.00;;;;;;5016225;28;20437;-75
2022/06/24 11:00:20;;;;;;;9.67;5.83;;;25.30;35.20;;;;;;5036402;28;20526;-76
2022/06/24 11:02:50;;;;;;;11.27;6.13;;;25.50;34.80;;;;;;5037479;28;20468;-74
2022/06/24 11:05:25;;;;;;;9.90;6.27;;;25.40;33.90;;;;;;5036311;28;20834;-74
2022/06/24 11:07:51;;;;;;;8.90;6.60;;;25.30;33.90;;;;;;5034680;28;20495;-74
2022/06/24 11:10:17;;;;;;;9.77;6.13;;;25.30;34.10;;;;;;5034532;28;20509;-74
2022/06/24 11:12:48;;;;;;;6.83;5.20;;;25.30;34.90;;;;;;5015996;28;20448;-74
2022/06/24 11:15:14;;;;;;;14.30;6.10;;;25.50;32.70;;;;;;5032514;28;20429;-74
2022/06/24 11:17:43;;;;;;;8.57;6.33;;;25.60;31.50;;;;;;5034681;28;20426;-74
2022/06/24 11:20:11;;;;;;;8.13;5.40;;;25.70;31.50;;;;;;5033103;28;20191;-75
2022/06/24 11:22:47;;;;;;;16.27;5.90;;;25.70;31.10;;;;;;5034671;28;20533;-73
2022/06/24 11:25:15;;;;;;;12.93;5.50;;;26.00;31.60;;;;;;5034528;28;20433;-73
2022/06/24 11:27:40;;;;;;;8.07;5.10;;;26.50;30.00;;;;;;5035727;28;20511;-74
2022/06/24 11:30:08;;;;;;;8.97;6.23;;;27.10;26.00;;;;;;5034137;28;20560;-74
2022/06/24 11:32:54;;;;;;;6.37;5.53;;;27.50;26.10;;;;;;5033798;28;20203;-75
2022/06/24 11:35:21;;;;;;;8.43;6.20;;;27.70;24.60;;;;;;5033131;28;20429;-76
2022/06/24 11:37:47;;;;;;;8.40;5.70;;;27.90;23.90;;;;;;5034950;28;20426;-76
2022/06/24 11:40:26;;;;;;;8.00;5.43;;;28.30;21.50;;;;;;5035409;28;20418;-75
2022/06/24 11:42:52;;;;;;;8.60;5.43;;;28.20;22.90;;;;;;5035558;28;20460;-74
2022/06/24 11:45:34;;;;;;;11.70;6.30;;;27.70;23.70;;;;;;5036300;28;20446;-72
2022/06/24 11:48:01;;;;;;;6.47;5.67;;;26.90;24.00;;;;;;5035267;28;20965;-73
2022/06/24 11:50:26;;;;;;;10.30;7.53;;;26.60;27.00;;;;;;5035128;28;20422;-73
2022/06/24 11:52:52;;;;;;;7.97;7.17;;;25.80;29.70;;;;;;5036218;28;20787;-74
2022/06/24 11:55:33;;;;;;;9.23;6.37;;;25.60;31.50;;;;;;5035410;28;20208;-73
2022/06/24 11:58:00;;;;;;;11.47;6.50;;;25.60;32.70;;;;;;5034868;28;20174;-73
2022/06/24 12:00:28;;;;;;;6.40;5.50;;;25.60;30.40;;;;;;5035820;28;20842;-73
2022/06/24 12:02:55;;;;;;;12.57;7.43;;;25.60;29.80;;;;;;5035405;28;20903;-75
2022/06/24 12:05:24;;;;;;;8.40;5.57;;;25.50;29.70;;;;;;5034562;28;20444;-74
2022/06/24 12:07:50;;;;;;;16.20;6.10;;;25.50;29.80;;;;;;5017438;28;20909;-74
2022/06/24 12:10:16;;;;;;;16.37;6.73;;;25.80;29.00;;;;;;5034655;28;20418;-74
2022/06/24 12:12:56;;;;;;;6.40;5.80;;;26.10;27.80;;;;;;5016080;28;20448;-74
2022/06/24 12:15:33;;;;;;;8.93;6.60;;;26.50;27.20;;;;;;5031642;28;20182;-73
2022/06/24 12:17:59;;;;;;;8.80;6.67;;;26.80;25.50;;;;;;5015828;28;20474;-73
2022/06/24 12:20:26;;;;;;;9.90;6.70;;;26.70;24.80;;;;;;5034499;28;20853;-74
2022/06/24 12:23:18;;;;;;;7.30;6.60;;;27.00;26.30;;;;;;5033941;28;20211;-75
2022/06/24 12:25:49;;;;;;;8.80;6.40;;;27.20;23.70;;;;;;5033664;28;20459;-74
2022/06/24 12:28:18;;;;;;;9.93;6.17;;;27.40;21.40;;;;;;5033216;28;20417;-74
2022/06/24 12:31:05;;;;;;;6.93;6.33;;;27.40;22.60;;;;;;5032998;28;20504;-73
2022/06/24 12:33:33;;;;;;;10.23;5.40;;;27.20;21.60;;;;;;5033636;28;21036;-75
2022/06/24 12:36:19;;;;;;;12.40;5.50;;;27.10;22.60;;;;;;5034943;28;20413;-74
2022/06/24 12:38:45;;;;;;;7.80;5.70;;;26.80;24.50;;;;;;5028935;28;20418;-74
2022/06/24 12:41:13;;;;;;;10.10;6.63;;;27.00;25.10;;;;;;5033056;28;20420;-74
2022/06/24 12:43:59;;;;;;;8.87;6.33;;;27.30;23.00;;;;;;5033208;28;20595;-74
2022/06/24 12:46:31;;;;;;;7.00;6.40;;;26.80;22.50;;;;;;5032854;28;20414;-73
2022/06/24 12:51:46;;;;;;;5.60;5.10;;;26.90;22.10;;;;;;5034115;28;20428;-74
2022/06/24 12:54:13;;;;;;;6.40;5.90;;;26.90;22.60;;;;;;5033724;28;20536;-74